Time,TemperatureF,DewpointF,PressureIn,WindDirection,WindDirectionDegrees,WindSpeedMPH,WindSpeedGustMPH,Humidity,HourlyPrecipIn,Conditions,Clouds,dailyrainin,SoftwareType,DateUTC
2013-02-06 00:03:00,38.5,29.9,29.85,WNW,292,3.1,3.1,71,0.00,,---,0.00,VWS V14.01,2013-02-06 08:03:00,
2013-02-06 00:08:00,38.5,30.2,29.85,WSW,248,2.5,2.5,72,0.00,,---,0.00,VWS V14.01,2013-02-06 08:08:00,
2013-02-06 00:13:00,38.5,30.2,29.85,South,180,3.8,3.8,72,0.00,,---,0.00,VWS V14.01,2013-02-06 08:13:00,
2013-02-06 00:18:00,38.7,30.1,29.88,SW,225,6.3,6.3,71,0.00,,---,0.00,VWS V14.01,2013-02-06 08:18:00,
2013-02-06 00:23:00,38.7,30.1,29.88,WSW,248,2.9,2.9,71,0.00,,---,0.00,VWS V14.01,2013-02-06 08:23:00,
2013-02-06 00:28:00,38.5,29.9,29.88,SW,225,3.4,3.4,71,0.00,,---,0.00,VWS V14.01,2013-02-06 08:28:00,
2013-02-06 00:33:00,38.5,30.2,29.88,SW,225,4.0,4.0,72,0.00,,---,0.00,VWS V14.01,2013-02-06 08:33:00,
2013-02-06 00:39:00,38.7,30.4,29.88,SSE,158,4.9,4.9,72,0.00,,---,0.00,VWS V14.01,2013-02-06 08:39:00,
2013-02-06 00:44:00,38.7,30.4,29.88,SSW,202,6.0,6.0,72,0.00,,---,0.00,VWS V14.01,2013-02-06 08:44:00,
2013-02-06 00:49:00,38.7,30.4,29.88,West,270,1.6,1.6,72,0.00,,---,0.00,VWS V14.01,2013-02-06 08:49:00,
2013-02-06 00:54:00,38.7,30.8,29.88,SW,225,2.9,2.9,73,0.00,,---,0.00,VWS V14.01,2013-02-06 08:54:00,
2013-02-06 00:59:00,38.5,30.6,29.88,SW,225,3.8,3.8,73,0.00,,---,0.00,VWS V14.01,2013-02-06 08:59:00,
2013-02-06 01:04:00,38.5,30.6,29.88,West,270,3.8,3.8,73,0.00,,---,0.00,VWS V14.01,2013-02-06 09:04:00,
2013-02-06 01:09:00,38.7,30.8,29.88,West,270,2.0,2.0,73,0.00,,---,0.00,VWS V14.01,2013-02-06 09:09:00,
2013-02-06 01:14:00,38.7,30.8,29.88,NW,315,3.6,3.6,73,0.00,,---,0.00,VWS V14.01,2013-02-06 09:14:00,
2013-02-06 01:19:00,38.7,30.8,29.88,WSW,248,6.5,6.5,73,0.00,,---,0.00,VWS V14.01,2013-02-06 09:19:00,
2013-02-06 01:24:00,38.7,30.8,29.88,WNW,292,2.7,2.7,73,0.00,,---,0.00,VWS V14.01,2013-02-06 09:24:00,
2013-02-06 01:29:00,38.7,30.8,29.88,SSW,202,2.7,2.7,73,0.00,,---,0.00,VWS V14.01,2013-02-06 09:29:00,
2013-02-06 01:34:00,38.7,30.8,29.88,SW,225,3.4,3.4,73,0.00,,---,0.00,VWS V14.01,2013-02-06 09:34:00,
2013-02-06 01:39:00,38.7,30.8,29.88,WSW,248,7.4,7.4,73,0.00,,---,0.00,VWS V14.01,2013-02-06 09:39:00,
2013-02-06 01:44:00,38.7,30.8,29.85,SW,225,3.8,3.8,73,0.00,,---,0.00,VWS V14.01,2013-02-06 09:44:00,
2013-02-06 01:50:00,38.7,31.1,29.85,WSW,248,4.7,4.7,74,0.00,,---,0.00,VWS V14.01,2013-02-06 09:50:00,
2013-02-06 01:55:00,38.7,31.1,29.85,SSE,158,3.8,3.8,74,0.00,,---,0.00,VWS V14.01,2013-02-06 09:55:00,
2013-02-06 02:00:00,38.5,30.9,29.88,SSW,202,3.4,3.4,74,0.00,,---,0.00,VWS V14.01,2013-02-06 10:00:00,
2013-02-06 02:05:00,38.5,30.9,29.88,WSW,248,5.4,5.4,74,0.00,,---,0.00,VWS V14.01,2013-02-06 10:05:00,
2013-02-06 02:10:00,38.3,30.8,29.88,SSW,202,4.0,4.0,74,0.00,,---,0.00,VWS V14.01,2013-02-06 10:10:00,
2013-02-06 02:15:00,38.3,30.8,29.91,NW,315,5.8,5.8,74,0.00,,---,0.00,VWS V14.01,2013-02-06 10:15:00,
2013-02-06 02:20:00,37.9,30.4,29.91,West,270,7.4,7.4,74,0.00,,---,0.00,VWS V14.01,2013-02-06 10:20:00,
2013-02-06 02:25:00,37.9,30.7,29.91,SSE,158,5.6,5.6,75,0.00,,---,0.00,VWS V14.01,2013-02-06 10:25:00,
2013-02-06 02:30:00,37.9,30.7,29.88,NE,45,2.7,2.7,75,0.00,,---,0.00,VWS V14.01,2013-02-06 10:30:00,
2013-02-06 02:35:00,37.8,30.6,29.88,SW,225,4.0,4.0,75,0.00,,---,0.00,VWS V14.01,2013-02-06 10:35:00,
2013-02-06 02:40:00,37.9,30.7,29.88,SW,225,5.6,5.6,75,0.00,,---,0.00,VWS V14.01,2013-02-06 10:40:00,
2013-02-06 02:45:00,37.8,30.6,29.91,WSW,248,2.0,2.0,75,0.00,,---,0.00,VWS V14.01,2013-02-06 10:45:00,
2013-02-06 02:51:00,37.8,30.6,29.91,SSW,202,6.9,6.9,75,0.00,,---,0.00,VWS V14.01,2013-02-06 10:51:00,
2013-02-06 02:56:00,37.6,30.4,29.91,WNW,292,3.4,3.4,75,0.00,,---,0.00,VWS V14.01,2013-02-06 10:56:00,
2013-02-06 03:01:00,37.6,30.4,29.88,SW,225,3.8,3.8,75,0.00,,---,0.00,VWS V14.01,2013-02-06 11:01:00,
2013-02-06 03:06:00,37.6,30.4,29.88,WSW,248,3.8,3.8,75,0.00,,---,0.00,VWS V14.01,2013-02-06 11:06:00,
2013-02-06 03:11:00,37.6,30.4,29.88,WSW,248,4.0,4.0,75,0.00,,---,0.00,VWS V14.01,2013-02-06 11:11:00,
2013-02-06 03:16:00,37.8,30.2,29.91,WSW,248,9.4,9.4,74,0.00,,---,0.00,VWS V14.01,2013-02-06 11:16:00,
2013-02-06 03:21:00,37.6,30.1,29.91,WSW,248,4.0,4.0,74,0.00,,---,0.00,VWS V14.01,2013-02-06 11:21:00,
2013-02-06 03:26:00,37.6,30.1,29.91,West,270,3.4,3.4,74,0.00,,---,0.00,VWS V14.01,2013-02-06 11:26:00,
2013-02-06 03:31:00,37.4,29.9,29.91,SW,225,3.4,3.4,74,0.00,,---,0.00,VWS V14.01,2013-02-06 11:31:00,
2013-02-06 03:36:00,37.2,30.0,29.91,WSW,248,6.5,6.5,75,0.00,,---,0.00,VWS V14.01,2013-02-06 11:36:00,
2013-02-06 03:49:00,36.9,30.0,29.91,WNW,292,6.3,6.3,76,0.00,,---,0.00,VWS V14.01,2013-02-06 11:49:00,
2013-02-06 03:54:00,36.9,30.0,29.91,SW,225,6.0,6.0,76,0.00,,---,0.00,VWS V14.01,2013-02-06 11:54:00,
2013-02-06 03:59:00,36.9,29.7,29.91,NNW,338,2.7,2.7,75,0.00,,---,0.00,VWS V14.01,2013-02-06 11:59:00,
2013-02-06 04:04:00,36.9,30.0,29.91,WSW,248,2.9,2.9,76,0.00,,---,0.00,VWS V14.01,2013-02-06 12:04:00,
2013-02-06 04:09:00,36.9,30.0,29.91,WSW,248,3.1,3.1,76,0.00,,---,0.00,VWS V14.01,2013-02-06 12:09:00,
2013-02-06 04:14:00,36.9,30.0,29.91,North,0,4.0,4.0,76,0.00,,---,0.00,VWS V14.01,2013-02-06 12:14:00,
2013-02-06 04:19:00,36.7,29.8,29.94,WNW,292,3.8,3.8,76,0.00,,---,0.00,VWS V14.01,2013-02-06 12:19:00,
2013-02-06 04:24:00,36.7,30.2,29.94,NW,315,3.8,3.8,77,0.00,,---,0.00,VWS V14.01,2013-02-06 12:24:00,
2013-02-06 04:29:00,36.7,30.2,29.91,NW,315,3.4,3.4,77,0.00,,---,0.00,VWS V14.01,2013-02-06 12:29:00,
2013-02-06 04:34:00,36.7,30.2,29.91,SSW,202,6.3,6.3,77,0.00,,---,0.00,VWS V14.01,2013-02-06 12:34:00,
2013-02-06 04:39:00,36.5,30.0,29.91,NW,315,4.3,4.3,77,0.00,,---,0.00,VWS V14.01,2013-02-06 12:39:00,
2013-02-06 04:45:00,36.5,30.0,29.94,WSW,248,4.3,4.3,77,0.00,,---,0.00,VWS V14.01,2013-02-06 12:45:00,
2013-02-06 04:50:00,36.5,30.0,29.94,South,180,0.0,0.0,77,0.00,,---,0.00,VWS V14.01,2013-02-06 12:50:00,
2013-02-06 04:55:00,36.5,30.0,29.94,SSW,202,1.3,1.3,77,0.00,,---,0.00,VWS V14.01,2013-02-06 12:55:00,
2013-02-06 05:00:00,36.5,30.0,29.94,NNW,338,2.9,2.9,77,0.00,,---,0.00,VWS V14.01,2013-02-06 13:00:00,
2013-02-06 05:05:00,36.3,29.8,29.94,WNW,292,3.6,3.6,77,0.00,,---,0.00,VWS V14.01,2013-02-06 13:05:00,
2013-02-06 05:10:00,36.3,29.8,29.94,NW,315,1.3,1.3,77,0.00,,---,0.00,VWS V14.01,2013-02-06 13:10:00,
2013-02-06 05:15:00,36.3,30.1,29.94,WSW,248,2.5,2.5,78,0.00,,---,0.00,VWS V14.01,2013-02-06 13:15:00,
2013-02-06 05:20:00,36.3,30.1,29.94,WNW,292,1.6,1.6,78,0.00,,---,0.00,VWS V14.01,2013-02-06 13:20:00,
2013-02-06 05:25:00,36.5,30.3,29.94,SW,225,3.6,3.6,78,0.00,,---,0.00,VWS V14.01,2013-02-06 13:25:00,
2013-02-06 05:30:00,36.3,30.1,29.94,ENE,68,1.6,1.6,78,0.00,,---,0.00,VWS V14.01,2013-02-06 13:30:00,
2013-02-06 05:35:00,36.5,30.3,29.94,WNW,292,2.9,2.9,78,0.00,,---,0.00,VWS V14.01,2013-02-06 13:35:00,
2013-02-06 05:40:00,36.5,30.3,29.94,SSE,158,5.6,5.6,78,0.00,,---,0.00,VWS V14.01,2013-02-06 13:40:00,
2013-02-06 05:45:00,36.5,30.3,29.94,ENE,68,2.0,2.0,78,0.00,,---,0.00,VWS V14.01,2013-02-06 13:45:00,
2013-02-06 05:50:00,36.5,30.3,29.94,WNW,292,5.4,5.4,78,0.00,,---,0.00,VWS V14.01,2013-02-06 13:50:00,
2013-02-06 05:56:00,36.7,30.5,29.94,NW,315,1.1,1.1,78,0.00,,---,0.00,VWS V14.01,2013-02-06 13:56:00,
2013-02-06 06:01:00,36.7,30.5,29.94,WSW,248,0.0,0.0,78,0.00,,---,0.00,VWS V14.01,2013-02-06 14:01:00,
2013-02-06 06:06:00,36.5,30.3,29.94,WNW,292,0.0,0.0,78,0.00,,---,0.00,VWS V14.01,2013-02-06 14:06:00,
2013-02-06 06:11:00,36.5,30.3,29.94,ENE,68,2.0,2.0,78,0.00,,---,0.00,VWS V14.01,2013-02-06 14:11:00,
2013-02-06 06:16:00,36.5,30.3,29.94,NE,45,1.6,1.6,78,0.00,,---,0.00,VWS V14.01,2013-02-06 14:16:00,
2013-02-06 06:21:00,36.5,30.3,29.94,SSW,202,2.7,2.7,78,0.00,,---,0.00,VWS V14.01,2013-02-06 14:21:00,
2013-02-06 06:26:00,36.5,30.3,29.94,NNW,338,0.0,0.0,78,0.00,,---,0.00,VWS V14.01,2013-02-06 14:26:00,
2013-02-06 06:31:00,36.5,30.3,29.91,SW,225,0.0,0.0,78,0.00,,---,0.00,VWS V14.01,2013-02-06 14:31:00,
2013-02-06 06:36:00,36.5,30.3,29.91,NW,315,0.0,0.0,78,0.00,,---,0.00,VWS V14.01,2013-02-06 14:36:00,
2013-02-06 06:41:00,36.7,30.5,29.91,NNW,338,1.6,1.6,78,0.00,,---,0.00,VWS V14.01,2013-02-06 14:41:00,
2013-02-06 06:46:00,36.5,30.6,29.94,SSE,158,1.3,1.3,79,0.00,,---,0.00,VWS V14.01,2013-02-06 14:46:00,
2013-02-06 06:51:00,36.5,30.6,29.94,South,180,2.7,2.7,79,0.00,,---,0.00,VWS V14.01,2013-02-06 14:51:00,
2013-02-06 06:57:00,36.7,30.8,29.94,SW,225,3.4,3.4,79,0.00,,---,0.00,VWS V14.01,2013-02-06 14:57:00,
2013-02-06 07:02:00,36.7,30.8,29.94,WNW,292,5.6,5.6,79,0.00,,---,0.00,VWS V14.01,2013-02-06 15:02:00,
2013-02-06 07:07:00,36.7,30.8,29.94,West,270,2.9,2.9,79,0.00,,---,0.00,VWS V14.01,2013-02-06 15:07:00,
2013-02-06 07:12:00,36.7,30.8,29.94,NW,315,2.2,2.2,79,0.00,,---,0.00,VWS V14.01,2013-02-06 15:12:00,
2013-02-06 07:17:00,36.5,30.6,29.94,WSW,248,3.6,3.6,79,0.00,,---,0.00,VWS V14.01,2013-02-06 15:17:00,
2013-02-06 07:22:00,36.5,30.6,29.94,WSW,248,1.6,1.6,79,0.00,,---,0.00,VWS V14.01,2013-02-06 15:22:00,
2013-02-06 07:27:00,36.1,30.3,29.94,SW,225,1.6,1.6,79,0.00,,---,0.00,VWS V14.01,2013-02-06 15:27:00,
2013-02-06 07:32:00,36.1,30.3,29.94,SE,135,1.6,1.6,79,0.00,,---,0.00,VWS V14.01,2013-02-06 15:32:00,
2013-02-06 07:37:00,36.1,30.3,29.94,NNW,338,2.5,2.5,79,0.00,,---,0.00,VWS V14.01,2013-02-06 15:37:00,
2013-02-06 07:42:00,36.1,30.6,29.94,SW,225,1.6,1.6,80,0.00,,---,0.00,VWS V14.01,2013-02-06 15:42:00,
2013-02-06 07:47:00,36.3,30.8,29.94,WSW,248,4.3,4.3,80,0.00,,---,0.00,VWS V14.01,2013-02-06 15:47:00,
2013-02-06 07:52:00,36.5,30.9,29.94,East,90,3.1,3.1,80,0.00,,---,0.00,VWS V14.01,2013-02-06 15:52:00,
2013-02-06 07:57:00,36.7,31.1,29.94,WNW,292,1.3,1.3,80,0.00,,---,0.00,VWS V14.01,2013-02-06 15:57:00,
2013-02-06 08:02:00,37.9,32.0,29.94,SW,225,2.0,2.0,79,0.00,,---,0.00,VWS V14.01,2013-02-06 16:02:00,
2013-02-06 08:07:00,39.0,32.4,29.94,WNW,292,2.7,2.7,77,0.00,,---,0.00,VWS V14.01,2013-02-06 16:07:00,
2013-02-06 08:12:00,40.1,32.8,29.94,SSW,202,7.2,7.2,75,0.00,,---,0.00,VWS V14.01,2013-02-06 16:12:00,
2013-02-06 08:18:00,39.7,31.5,29.94,NW,315,1.6,1.6,72,0.00,,---,0.00,VWS V14.01,2013-02-06 16:18:00,
2013-02-06 08:23:00,40.3,32.0,29.94,South,180,0.9,0.9,72,0.00,,---,0.00,VWS V14.01,2013-02-06 16:23:00,
2013-02-06 08:28:00,39.9,31.6,29.94,NW,315,2.5,2.5,72,0.00,,---,0.00,VWS V14.01,2013-02-06 16:28:00,
2013-02-06 08:33:00,39.7,31.1,29.97,West,270,1.6,1.6,71,0.00,,---,0.00,VWS V14.01,2013-02-06 16:33:00,
2013-02-06 08:38:00,39.4,30.4,29.97,West,270,1.3,1.3,70,0.00,,---,0.00,VWS V14.01,2013-02-06 16:38:00,
2013-02-06 08:43:00,41.2,31.8,29.97,WSW,248,3.1,3.1,69,0.00,,---,0.00,VWS V14.01,2013-02-06 16:43:00,
2013-02-06 08:48:00,41.5,31.0,29.97,NW,315,9.6,9.6,66,0.00,,---,0.00,VWS V14.01,2013-02-06 16:48:00,
2013-02-06 08:53:00,42.4,31.1,29.97,West,270,5.4,5.4,64,0.00,,---,0.00,VWS V14.01,2013-02-06 16:53:00,
2013-02-06 08:58:00,43.0,30.9,29.97,SSW,202,3.6,3.6,62,0.00,,---,0.00,VWS V14.01,2013-02-06 16:58:00,
2013-02-06 09:03:00,43.3,31.2,29.97,NNW,338,1.6,1.6,62,0.00,,---,0.00,VWS V14.01,2013-02-06 17:03:00,
2013-02-06 09:08:00,43.7,30.3,29.97,SW,225,3.1,3.1,59,0.00,,---,0.00,VWS V14.01,2013-02-06 17:08:00,
2013-02-06 09:13:00,44.4,31.4,29.97,WSW,248,1.3,1.3,60,0.00,,---,0.00,VWS V14.01,2013-02-06 17:13:00,
2013-02-06 09:18:00,44.4,30.6,30.00,NNW,338,2.9,2.9,58,0.00,,---,0.00,VWS V14.01,2013-02-06 17:18:00,
2013-02-06 09:23:00,44.2,30.4,30.00,NNE,22,2.5,2.5,58,0.00,,---,0.00,VWS V14.01,2013-02-06 17:23:00,
2013-02-06 09:28:00,45.7,31.3,30.00,NNE,22,1.6,1.6,57,0.00,,---,0.00,VWS V14.01,2013-02-06 17:28:00,
2013-02-06 09:34:00,44.8,29.6,30.00,SSE,158,3.8,3.8,55,0.00,,---,0.00,VWS V14.01,2013-02-06 17:34:00,
2013-02-06 09:39:00,44.4,30.2,30.00,SW,225,1.3,1.3,57,0.00,,---,0.00,VWS V14.01,2013-02-06 17:39:00,
2013-02-06 09:44:00,44.2,29.5,30.00,South,180,1.3,1.3,56,0.00,,---,0.00,VWS V14.01,2013-02-06 17:44:00,
2013-02-06 09:49:00,44.8,29.2,30.00,SW,225,2.9,2.9,54,0.00,,---,0.00,VWS V14.01,2013-02-06 17:49:00,
2013-02-06 09:54:00,44.8,28.2,30.00,WSW,248,5.6,5.6,52,0.00,,---,0.00,VWS V14.01,2013-02-06 17:54:00,
2013-02-06 09:59:00,44.6,29.0,30.00,SSE,158,4.3,4.3,54,0.00,,---,0.00,VWS V14.01,2013-02-06 17:59:00,
2013-02-06 10:04:00,45.1,29.0,30.00,SSW,202,3.8,3.8,53,0.00,,---,0.00,VWS V14.01,2013-02-06 18:04:00,
2013-02-06 10:09:00,45.1,28.6,30.00,SSW,202,4.0,4.0,52,0.00,,---,0.00,VWS V14.01,2013-02-06 18:09:00,
2013-02-06 10:14:00,44.8,28.7,30.00,SSW,202,4.3,4.3,53,0.00,,---,0.00,VWS V14.01,2013-02-06 18:14:00,
2013-02-06 10:19:00,43.9,27.4,30.00,SSW,202,2.7,2.7,52,0.00,,---,0.00,VWS V14.01,2013-02-06 18:19:00,
2013-02-06 10:25:00,43.7,27.7,30.00,SW,225,2.9,2.9,53,0.00,,---,0.00,VWS V14.01,2013-02-06 18:25:00,
2013-02-06 10:30:00,43.7,27.7,30.00,WSW,248,4.0,4.0,53,0.00,,---,0.00,VWS V14.01,2013-02-06 18:30:00,
2013-02-06 10:35:00,43.9,28.3,30.00,WSW,248,3.1,3.1,54,0.00,,---,0.00,VWS V14.01,2013-02-06 18:35:00,
2013-02-06 10:40:00,44.8,29.2,30.00,WSW,248,0.0,0.0,54,0.00,,---,0.00,VWS V14.01,2013-02-06 18:40:00,
2013-02-06 10:45:00,44.8,28.2,30.00,SW,225,2.7,2.7,52,0.00,,---,0.00,VWS V14.01,2013-02-06 18:45:00,
2013-02-06 10:50:00,44.8,28.2,30.00,WSW,248,2.0,2.0,52,0.00,,---,0.00,VWS V14.01,2013-02-06 18:50:00,
2013-02-06 10:55:00,44.8,28.2,30.00,WSW,248,1.3,1.3,52,0.00,,---,0.00,VWS V14.01,2013-02-06 18:55:00,
2013-02-06 11:00:00,45.5,28.9,30.00,NW,315,2.9,2.9,52,0.00,,---,0.00,VWS V14.01,2013-02-06 19:00:00,
2013-02-06 11:05:00,46.4,29.8,30.00,SW,225,2.9,2.9,52,0.00,,---,0.00,VWS V14.01,2013-02-06 19:05:00,
2013-02-06 11:10:00,46.8,28.6,30.00,WNW,292,2.9,2.9,49,0.00,,---,0.00,VWS V14.01,2013-02-06 19:10:00,
2013-02-06 11:15:00,46.9,28.3,30.00,SSW,202,4.3,4.3,48,0.00,,---,0.00,VWS V14.01,2013-02-06 19:15:00,
2013-02-06 11:20:00,47.1,28.5,30.00,WSW,248,4.0,4.0,48,0.00,,---,0.00,VWS V14.01,2013-02-06 19:20:00,
2013-02-06 11:25:00,47.1,28.5,30.00,SSW,202,5.6,5.6,48,0.00,,---,0.00,VWS V14.01,2013-02-06 19:25:00,
2013-02-06 11:30:00,47.8,29.1,30.00,WSW,248,1.3,1.3,48,0.00,,---,0.00,VWS V14.01,2013-02-06 19:30:00,
2013-02-06 11:36:00,48.4,29.1,30.00,NW,315,2.5,2.5,47,0.00,,---,0.00,VWS V14.01,2013-02-06 19:36:00,
2013-02-06 11:41:00,48.7,28.9,30.00,WNW,292,2.7,2.7,46,0.00,,---,0.00,VWS V14.01,2013-02-06 19:41:00,
2013-02-06 11:46:00,49.1,28.7,30.00,WSW,248,2.7,2.7,45,0.00,,---,0.00,VWS V14.01,2013-02-06 19:46:00,
2013-02-06 11:51:00,48.9,27.4,30.00,South,180,3.8,3.8,43,0.00,,---,0.00,VWS V14.01,2013-02-06 19:51:00,
2013-02-06 11:56:00,47.5,26.7,30.00,WSW,248,2.7,2.7,44,0.00,,---,0.00,VWS V14.01,2013-02-06 19:56:00,
2013-02-06 12:01:00,47.8,27.5,30.00,West,270,3.4,3.4,45,0.00,,---,0.00,VWS V14.01,2013-02-06 20:01:00,
2013-02-06 12:06:00,47.7,27.9,30.00,WSW,248,3.8,3.8,46,0.00,,---,0.00,VWS V14.01,2013-02-06 20:06:00,
2013-02-06 12:11:00,48.4,28.6,30.00,SE,135,4.3,4.3,46,0.00,,---,0.00,VWS V14.01,2013-02-06 20:11:00,
2013-02-06 12:16:00,48.2,27.3,30.00,WSW,248,3.6,3.6,44,0.00,,---,0.00,VWS V14.01,2013-02-06 20:16:00,
2013-02-06 12:21:00,48.2,27.3,30.00,SSW,202,2.2,2.2,44,0.00,,---,0.00,VWS V14.01,2013-02-06 20:21:00,
2013-02-06 12:26:00,47.8,28.1,30.00,SSW,202,6.0,6.0,46,0.00,,---,0.00,VWS V14.01,2013-02-06 20:26:00,
2013-02-06 12:31:00,47.7,28.4,30.00,ENE,68,1.6,1.6,47,0.00,,---,0.00,VWS V14.01,2013-02-06 20:31:00,
2013-02-06 12:37:00,47.5,28.3,30.00,NNE,22,2.0,2.0,47,0.00,,---,0.00,VWS V14.01,2013-02-06 20:37:00,
2013-02-06 12:42:00,47.8,27.5,30.00,West,270,3.4,3.4,45,0.00,,---,0.00,VWS V14.01,2013-02-06 20:42:00,
2013-02-06 12:47:00,47.8,28.1,30.00,WNW,292,2.7,2.7,46,0.00,,---,0.00,VWS V14.01,2013-02-06 20:47:00,
2013-02-06 12:52:00,48.2,27.9,30.00,WSW,248,2.5,2.5,45,0.00,,---,0.00,VWS V14.01,2013-02-06 20:52:00,
2013-02-06 12:57:00,48.7,28.4,30.00,SSW,202,2.7,2.7,45,0.00,,---,0.00,VWS V14.01,2013-02-06 20:57:00,
2013-02-06 13:02:00,48.7,27.8,30.00,NW,315,4.9,4.9,44,0.00,,---,0.00,VWS V14.01,2013-02-06 21:02:00,
2013-02-06 13:07:00,49.3,28.3,30.00,SW,225,3.4,3.4,44,0.00,,---,0.00,VWS V14.01,2013-02-06 21:07:00,
2013-02-06 13:12:00,49.6,28.6,30.00,WSW,248,3.6,3.6,44,0.00,,---,0.00,VWS V14.01,2013-02-06 21:12:00,
2013-02-06 13:17:00,50.0,28.4,29.97,WSW,248,2.0,2.0,43,0.00,,---,0.00,VWS V14.01,2013-02-06 21:17:00,
2013-02-06 13:22:00,50.4,28.7,29.97,SW,225,0.0,0.0,43,0.00,,---,0.00,VWS V14.01,2013-02-06 21:22:00,
2013-02-06 13:27:00,49.6,27.5,29.97,West,270,2.2,2.2,42,0.00,,---,0.00,VWS V14.01,2013-02-06 21:27:00,
2013-02-06 13:32:00,48.7,26.7,29.97,WSW,248,3.4,3.4,42,0.00,,---,0.00,VWS V14.01,2013-02-06 21:32:00,
2013-02-06 13:37:00,47.8,27.0,29.97,WSW,248,0.0,0.0,44,0.00,,---,0.00,VWS V14.01,2013-02-06 21:37:00,
2013-02-06 13:42:00,47.5,27.2,29.97,ENE,68,0.9,0.9,45,0.00,,---,0.00,VWS V14.01,2013-02-06 21:42:00,
2013-02-06 13:47:00,47.5,27.2,29.97,WNW,292,2.2,2.2,45,0.00,,---,0.00,VWS V14.01,2013-02-06 21:47:00,
2013-02-06 13:52:00,47.5,27.8,29.97,SW,225,2.0,2.0,46,0.00,,---,0.00,VWS V14.01,2013-02-06 21:52:00,
2013-02-06 13:58:00,47.5,27.8,29.97,WSW,248,0.9,0.9,46,0.00,,---,0.00,VWS V14.01,2013-02-06 21:58:00,
2013-02-06 14:03:00,47.7,28.4,30.00,WSW,248,0.0,0.0,47,0.00,,---,0.00,VWS V14.01,2013-02-06 22:03:00,
2013-02-06 14:08:00,47.3,27.0,30.00,NNW,338,2.2,2.2,45,0.00,,---,0.00,VWS V14.01,2013-02-06 22:08:00,
2013-02-06 14:13:00,46.8,27.1,30.00,WNW,292,3.6,3.6,46,0.00,,---,0.00,VWS V14.01,2013-02-06 22:13:00,
2013-02-06 14:18:00,46.8,27.1,29.97,WSW,248,3.1,3.1,46,0.00,,---,0.00,VWS V14.01,2013-02-06 22:18:00,
2013-02-06 14:23:00,46.6,26.9,29.97,WSW,248,2.7,2.7,46,0.00,,---,0.00,VWS V14.01,2013-02-06 22:23:00,
2013-02-06 14:28:00,46.6,27.5,29.97,NW,315,2.7,2.7,47,0.00,,---,0.00,VWS V14.01,2013-02-06 22:28:00,
2013-02-06 14:33:00,46.8,27.6,30.00,SW,225,3.1,3.1,47,0.00,,---,0.00,VWS V14.01,2013-02-06 22:33:00,
2013-02-06 14:38:00,46.8,27.6,30.00,SW,225,0.0,0.0,47,0.00,,---,0.00,VWS V14.01,2013-02-06 22:38:00,
2013-02-06 14:43:00,46.8,27.6,30.00,WNW,292,0.9,0.9,47,0.00,,---,0.00,VWS V14.01,2013-02-06 22:43:00,
2013-02-06 14:48:00,46.8,27.6,30.00,WNW,292,2.0,2.0,47,0.00,,---,0.00,VWS V14.01,2013-02-06 22:48:00,
2013-02-06 14:54:00,46.8,28.1,30.00,WNW,292,1.3,1.3,48,0.00,,---,0.00,VWS V14.01,2013-02-06 22:54:00,
2013-02-06 14:59:00,46.8,28.1,30.00,WSW,248,0.0,0.0,48,0.00,,---,0.00,VWS V14.01,2013-02-06 22:59:00,
2013-02-06 15:04:00,46.6,27.5,30.00,WSW,248,3.1,3.1,47,0.00,,---,0.00,VWS V14.01,2013-02-06 23:04:00,
2013-02-06 15:09:00,46.6,28.0,30.00,WSW,248,0.0,0.0,48,0.00,,---,0.00,VWS V14.01,2013-02-06 23:09:00,
2013-02-06 15:14:00,46.4,27.3,30.00,WSW,248,0.0,0.0,47,0.00,,---,0.00,VWS V14.01,2013-02-06 23:14:00,
2013-02-06 15:19:00,46.4,27.3,30.00,SSW,202,4.9,4.9,47,0.00,,---,0.00,VWS V14.01,2013-02-06 23:19:00,
2013-02-06 15:24:00,46.2,27.1,30.00,SW,225,0.0,0.0,47,0.00,,---,0.00,VWS V14.01,2013-02-06 23:24:00,
2013-02-06 15:29:00,46.2,27.6,30.00,West,270,2.2,2.2,48,0.00,,---,0.00,VWS V14.01,2013-02-06 23:29:00,
2013-02-06 15:34:00,45.9,26.8,30.00,South,180,1.6,1.6,47,0.00,,---,0.00,VWS V14.01,2013-02-06 23:34:00,
2013-02-06 15:39:00,45.9,27.3,30.00,SW,225,1.3,1.3,48,0.00,,---,0.00,VWS V14.01,2013-02-06 23:39:00,
2013-02-06 15:44:00,45.7,27.1,30.00,West,270,2.9,2.9,48,0.00,,---,0.00,VWS V14.01,2013-02-06 23:44:00,
2013-02-06 15:49:00,45.5,27.0,30.00,NNW,338,4.0,4.0,48,0.00,,---,0.00,VWS V14.01,2013-02-06 23:49:00,
2013-02-06 15:55:00,45.5,26.5,30.00,SW,225,1.3,1.3,47,0.00,,---,0.00,VWS V14.01,2013-02-06 23:55:00,
2013-02-06 16:00:00,45.1,26.1,30.00,SSW,202,3.6,3.6,47,0.00,,---,0.00,VWS V14.01,2013-02-07 00:00:00,
2013-02-06 16:05:00,45.0,26.5,30.00,NW,315,0.9,0.9,48,0.00,,---,0.00,VWS V14.01,2013-02-07 00:05:00,
2013-02-06 16:10:00,44.8,26.3,30.00,WSW,248,4.3,4.3,48,0.00,,---,0.00,VWS V14.01,2013-02-07 00:10:00,
2013-02-06 16:15:00,44.4,26.5,30.03,WSW,248,0.0,0.0,49,0.00,,---,0.00,VWS V14.01,2013-02-07 00:15:00,
2013-02-06 16:20:00,44.2,26.3,30.03,SSW,202,1.6,1.6,49,0.00,,---,0.00,VWS V14.01,2013-02-07 00:20:00,
2013-02-06 16:25:00,44.1,26.1,30.03,SSW,202,0.0,0.0,49,0.00,,---,0.00,VWS V14.01,2013-02-07 00:25:00,
2013-02-06 16:30:00,43.5,26.1,30.00,WSW,248,2.0,2.0,50,0.00,,---,0.00,VWS V14.01,2013-02-07 00:30:00,
2013-02-06 16:35:00,43.3,26.0,30.00,SSW,202,2.0,2.0,50,0.00,,---,0.00,VWS V14.01,2013-02-07 00:35:00,
2013-02-06 16:40:00,43.2,25.8,30.00,East,90,0.0,0.0,50,0.00,,---,0.00,VWS V14.01,2013-02-07 00:40:00,
2013-02-06 16:45:00,42.8,25.5,30.00,WSW,248,0.0,0.0,50,0.00,,---,0.00,VWS V14.01,2013-02-07 00:45:00,
2013-02-06 16:51:00,42.4,25.6,30.00,SW,225,0.0,0.0,51,0.00,,---,0.00,VWS V14.01,2013-02-07 00:51:00,
2013-02-06 16:56:00,42.3,25.4,30.00,SW,225,0.0,0.0,51,0.00,,---,0.00,VWS V14.01,2013-02-07 00:56:00,
2013-02-06 17:01:00,41.7,25.4,30.00,SW,225,0.0,0.0,52,0.00,,---,0.00,VWS V14.01,2013-02-07 01:01:00,
2013-02-06 17:06:00,41.4,25.1,30.00,SW,225,0.0,0.0,52,0.00,,---,0.00,VWS V14.01,2013-02-07 01:06:00,
2013-02-06 17:11:00,41.0,25.2,30.00,SW,225,0.0,0.0,53,0.00,,---,0.00,VWS V14.01,2013-02-07 01:11:00,
2013-02-06 17:16:00,40.8,25.5,30.00,SW,225,0.0,0.0,54,0.00,,---,0.00,VWS V14.01,2013-02-07 01:16:00,
2013-02-06 17:21:00,40.5,25.6,30.00,SW,225,0.0,0.0,55,0.00,,---,0.00,VWS V14.01,2013-02-07 01:21:00,
2013-02-06 17:26:00,40.3,25.4,30.00,SSW,202,0.0,0.0,55,0.00,,---,0.00,VWS V14.01,2013-02-07 01:26:00,
2013-02-06 17:31:00,39.9,25.5,30.00,South,180,1.6,1.6,56,0.00,,---,0.00,VWS V14.01,2013-02-07 01:31:00,
2013-02-06 17:36:00,39.9,25.9,30.00,South,180,0.0,0.0,57,0.00,,---,0.00,VWS V14.01,2013-02-07 01:36:00,
2013-02-06 17:41:00,39.4,25.4,30.00,SSW,202,1.6,1.6,57,0.00,,---,0.00,VWS V14.01,2013-02-07 01:41:00,
2013-02-06 17:46:00,39.4,26.3,30.00,South,180,2.2,2.2,59,0.00,,---,0.00,VWS V14.01,2013-02-07 01:46:00,
2013-02-06 17:51:00,39.0,25.9,30.00,SSE,158,2.0,2.0,59,0.00,,---,0.00,VWS V14.01,2013-02-07 01:51:00,
2013-02-06 17:57:00,38.8,26.2,30.00,South,180,2.0,2.0,60,0.00,,---,0.00,VWS V14.01,2013-02-07 01:57:00,
2013-02-06 18:02:00,38.7,26.8,30.00,South,180,2.0,2.0,62,0.00,,---,0.00,VWS V14.01,2013-02-07 02:02:00,
2013-02-06 18:07:00,38.5,26.6,30.00,South,180,2.5,2.5,62,0.00,,---,0.00,VWS V14.01,2013-02-07 02:07:00,
2013-02-06 18:12:00,38.3,27.2,30.00,South,180,2.7,2.7,64,0.00,,---,0.00,VWS V14.01,2013-02-07 02:12:00,
2013-02-06 18:17:00,38.1,27.0,29.97,South,180,2.5,2.5,64,0.00,,---,0.00,VWS V14.01,2013-02-07 02:17:00,
2013-02-06 18:22:00,37.8,26.3,29.97,SSE,158,2.0,2.0,63,0.00,,---,0.00,VWS V14.01,2013-02-07 02:22:00,
2013-02-06 18:27:00,37.4,26.4,29.97,SSE,158,1.6,1.6,64,0.00,,---,0.00,VWS V14.01,2013-02-07 02:27:00,
2013-02-06 18:32:00,37.0,26.8,29.97,SSE,158,2.5,2.5,66,0.00,,---,0.00,VWS V14.01,2013-02-07 02:32:00,
2013-02-06 18:37:00,37.0,27.1,29.97,SSE,158,2.2,2.2,67,0.00,,---,0.00,VWS V14.01,2013-02-07 02:37:00,
2013-02-06 18:42:00,36.9,26.9,29.97,SSE,158,2.2,2.2,67,0.00,,---,0.00,VWS V14.01,2013-02-07 02:42:00,
2013-02-06 18:47:00,36.5,27.0,29.97,SSE,158,1.6,1.6,68,0.00,,---,0.00,VWS V14.01,2013-02-07 02:47:00,
2013-02-06 18:52:00,36.1,26.6,29.97,SE,135,2.5,2.5,68,0.00,,---,0.00,VWS V14.01,2013-02-07 02:52:00,
2013-02-06 18:57:00,36.1,27.0,29.97,South,180,2.2,2.2,69,0.00,,---,0.00,VWS V14.01,2013-02-07 02:57:00,
2013-02-06 19:03:00,36.3,27.5,29.97,SSE,158,2.2,2.2,70,0.00,,---,0.00,VWS V14.01,2013-02-07 03:03:00,
2013-02-06 19:08:00,36.3,27.5,29.97,SE,135,1.6,1.6,70,0.00,,---,0.00,VWS V14.01,2013-02-07 03:08:00,
2013-02-06 19:13:00,36.3,27.5,29.97,SSE,158,2.0,2.0,70,0.00,,---,0.00,VWS V14.01,2013-02-07 03:13:00,
2013-02-06 19:18:00,35.4,26.3,29.97,SSE,158,0.0,0.0,69,0.00,,---,0.00,VWS V14.01,2013-02-07 03:18:00,
2013-02-06 19:23:00,34.9,26.1,29.97,SSE,158,0.0,0.0,70,0.00,,---,0.00,VWS V14.01,2013-02-07 03:23:00,
2013-02-06 19:28:00,34.5,25.8,29.97,SSE,158,0.0,0.0,70,0.00,,---,0.00,VWS V14.01,2013-02-07 03:28:00,
2013-02-06 19:33:00,34.3,25.6,29.97,West,270,0.0,0.0,70,0.00,,---,0.00,VWS V14.01,2013-02-07 03:33:00,
2013-02-06 19:38:00,34.3,25.9,29.97,WNW,292,0.0,0.0,71,0.00,,---,0.00,VWS V14.01,2013-02-07 03:38:00,
2013-02-06 19:43:00,34.5,26.1,29.97,WNW,292,0.0,0.0,71,0.00,,---,0.00,VWS V14.01,2013-02-07 03:43:00,
2013-02-06 19:49:00,34.3,25.9,29.97,WNW,292,0.0,0.0,71,0.00,,---,0.00,VWS V14.01,2013-02-07 03:49:00,
2013-02-06 19:54:00,35.1,27.3,29.97,SE,135,1.1,1.1,73,0.00,,---,0.00,VWS V14.01,2013-02-07 03:54:00,
2013-02-06 19:59:00,35.4,27.6,29.97,ESE,112,0.0,0.0,73,0.00,,---,0.00,VWS V14.01,2013-02-07 03:59:00,
2013-02-06 20:04:00,35.4,27.6,29.97,ENE,68,0.0,0.0,73,0.00,,---,0.00,VWS V14.01,2013-02-07 04:04:00,
2013-02-06 20:09:00,35.6,27.8,29.97,ENE,68,0.0,0.0,73,0.00,,---,0.00,VWS V14.01,2013-02-07 04:09:00,
2013-02-06 20:14:00,35.4,27.6,29.97,NE,45,0.0,0.0,73,0.00,,---,0.00,VWS V14.01,2013-02-07 04:14:00,
2013-02-06 20:19:00,35.4,27.6,29.97,ESE,112,0.0,0.0,73,0.00,,---,0.00,VWS V14.01,2013-02-07 04:19:00,
2013-02-06 20:24:00,35.2,27.5,29.97,East,90,0.0,0.0,73,0.00,,---,0.00,VWS V14.01,2013-02-07 04:24:00,
2013-02-06 20:29:00,35.6,28.1,29.97,ENE,68,2.5,2.5,74,0.00,,---,0.00,VWS V14.01,2013-02-07 04:29:00,
2013-02-06 20:34:00,36.1,28.7,29.97,East,90,2.5,2.5,74,0.00,,---,0.00,VWS V14.01,2013-02-07 04:34:00,
2013-02-06 20:39:00,36.7,28.9,29.97,ESE,112,2.7,2.7,73,0.00,,---,0.00,VWS V14.01,2013-02-07 04:39:00,
2013-02-06 20:44:00,36.9,28.7,29.97,ESE,112,2.5,2.5,72,0.00,,---,0.00,VWS V14.01,2013-02-07 04:44:00,
2013-02-06 20:49:00,37.0,28.5,29.97,SE,135,1.6,1.6,71,0.00,,---,0.00,VWS V14.01,2013-02-07 04:49:00,
2013-02-06 20:55:00,37.0,28.5,29.97,ESE,112,3.1,3.1,71,0.00,,---,0.00,VWS V14.01,2013-02-07 04:55:00,
2013-02-06 21:00:00,37.2,28.7,29.97,SE,135,2.0,2.0,71,0.00,,---,0.00,VWS V14.01,2013-02-07 05:00:00,
2013-02-06 21:01:00,37.2,28.7,29.97,ESE,112,2.2,2.2,71,0.00,,---,0.00,VWS V14.01,2013-02-07 05:01:00,
2013-02-06 21:06:00,37.0,28.2,29.97,ENE,68,1.1,1.1,70,0.00,,---,0.00,VWS V14.01,2013-02-07 05:06:00,
2013-02-06 21:11:00,37.0,28.5,29.97,East,90,2.7,2.7,71,0.00,,---,0.00,VWS V14.01,2013-02-07 05:11:00,
2013-02-06 21:16:00,36.9,28.0,29.97,SSE,158,0.0,0.0,70,0.00,,---,0.00,VWS V14.01,2013-02-07 05:16:00,
2013-02-06 21:21:00,36.9,28.4,29.97,NE,45,3.4,3.4,71,0.00,,---,0.00,VWS V14.01,2013-02-07 05:21:00,
2013-02-06 21:26:00,36.9,28.4,29.97,SE,135,2.9,2.9,71,0.00,,---,0.00,VWS V14.01,2013-02-07 05:26:00,
2013-02-06 21:31:00,37.0,28.5,29.94,ESE,112,1.6,1.6,71,0.00,,---,0.00,VWS V14.01,2013-02-07 05:31:00,
2013-02-06 21:36:00,37.4,28.5,29.94,ESE,112,2.5,2.5,70,0.00,,---,0.00,VWS V14.01,2013-02-07 05:36:00,
2013-02-06 21:41:00,37.4,28.5,29.94,SSW,202,3.8,3.8,70,0.00,,---,0.00,VWS V14.01,2013-02-07 05:41:00,
2013-02-06 21:46:00,37.6,28.4,29.97,SSE,158,2.5,2.5,69,0.00,,---,0.00,VWS V14.01,2013-02-07 05:46:00,
2013-02-06 21:51:00,37.6,28.4,29.97,South,180,5.8,5.8,69,0.00,,---,0.00,VWS V14.01,2013-02-07 05:51:00,
2013-02-06 21:56:00,37.6,28.4,29.97,SSW,202,2.7,2.7,69,0.00,,---,0.00,VWS V14.01,2013-02-07 05:56:00,
2013-02-06 22:01:00,37.6,28.4,29.97,SSE,158,1.1,1.1,69,0.00,,---,0.00,VWS V14.01,2013-02-07 06:01:00,
2013-02-06 22:06:00,37.6,28.4,29.97,ESE,112,4.0,4.0,69,0.00,,---,0.00,VWS V14.01,2013-02-07 06:06:00,
2013-02-06 22:11:00,37.6,28.4,29.97,ENE,68,3.6,3.6,69,0.00,,---,0.00,VWS V14.01,2013-02-07 06:11:00,
2013-02-06 22:17:00,37.6,28.7,29.97,SE,135,3.4,3.4,70,0.00,,---,0.00,VWS V14.01,2013-02-07 06:17:00,
2013-02-06 22:22:00,37.6,28.7,29.97,ESE,112,7.2,7.2,70,0.00,,---,0.00,VWS V14.01,2013-02-07 06:22:00,
2013-02-06 22:27:00,37.6,28.7,29.97,East,90,7.4,7.4,70,0.00,,---,0.00,VWS V14.01,2013-02-07 06:27:00,
2013-02-06 22:32:00,37.6,28.7,29.97,East,90,5.4,5.4,70,0.00,,---,0.00,VWS V14.01,2013-02-07 06:32:00,
2013-02-06 22:37:00,37.6,28.7,29.97,ENE,68,1.1,1.1,70,0.00,,---,0.00,VWS V14.01,2013-02-07 06:37:00,
2013-02-06 22:42:00,37.6,28.7,29.97,SE,135,4.3,4.3,70,0.00,,---,0.00,VWS V14.01,2013-02-07 06:42:00,
2013-02-06 22:47:00,37.6,28.7,29.94,SSE,158,0.0,0.0,70,0.00,,---,0.00,VWS V14.01,2013-02-07 06:47:00,
2013-02-06 22:52:00,37.4,28.5,29.94,East,90,2.0,2.0,70,0.00,,---,0.00,VWS V14.01,2013-02-07 06:52:00,
2013-02-06 22:57:00,37.4,28.9,29.94,ESE,112,3.4,3.4,71,0.00,,---,0.00,VWS V14.01,2013-02-07 06:57:00,
2013-02-06 23:02:00,37.6,29.0,29.94,East,90,2.5,2.5,71,0.00,,---,0.00,VWS V14.01,2013-02-07 07:02:00,
2013-02-06 23:07:00,37.6,29.0,29.94,ENE,68,2.0,2.0,71,0.00,,---,0.00,VWS V14.01,2013-02-07 07:07:00,
2013-02-06 23:13:00,37.6,29.0,29.94,SE,135,3.6,3.6,71,0.00,,---,0.00,VWS V14.01,2013-02-07 07:13:00,
2013-02-06 23:18:00,37.6,29.0,29.94,ESE,112,2.5,2.5,71,0.00,,---,0.00,VWS V14.01,2013-02-07 07:18:00,
2013-02-06 23:23:00,37.6,29.0,29.94,ESE,112,2.5,2.5,71,0.00,,---,0.00,VWS V14.01,2013-02-07 07:23:00,
2013-02-06 23:28:00,37.6,29.0,29.94,SSE,158,2.9,2.9,71,0.00,,---,0.00,VWS V14.01,2013-02-07 07:28:00,
2013-02-06 23:33:00,37.6,29.0,29.94,South,180,7.4,7.4,71,0.00,,---,0.00,VWS V14.01,2013-02-07 07:33:00,
2013-02-06 23:38:00,37.6,29.0,29.94,SE,135,3.8,3.8,71,0.00,,---,0.00,VWS V14.01,2013-02-07 07:38:00,
2013-02-06 23:43:00,37.4,28.9,29.94,ESE,112,3.4,3.4,71,0.00,,---,0.00,VWS V14.01,2013-02-07 07:43:00,
2013-02-06 23:48:00,37.4,28.9,29.94,SE,135,4.0,4.0,71,0.00,,---,0.00,VWS V14.01,2013-02-07 07:48:00,
2013-02-06 23:53:00,37.4,28.9,29.94,ESE,112,3.4,3.4,71,0.00,,---,0.00,VWS V14.01,2013-02-07 07:53:00,
2013-02-06 23:58:00,37.4,28.9,29.94,ESE,112,5.4,5.4,71,0.00,,---,0.00,VWS V14.01,2013-02-07 07:58:00,